Time;durP1;ratioP1;P1;durP2;ratioP2;P2;SDS_P1;SDS_P2;PMS_P1;PMS_P2;Temp;Humidity;BMP_temperature;BMP_pressure;BME280_temperature;BME280_humidity;BME280_pressure;Samples;Min_cycle;Max_cycle;Signal;HPM_P1;HPM_P2
2023/01/06 00:00:12;;;;;;;33.45;16.50;;;9.50;99.90;;;;;;5006054;28;20508;-60
2023/01/06 00:02:37;;;;;;;26.83;14.80;;;9.50;99.90;;;;;;5004248;28;20077;-61
2023/01/06 00:05:03;;;;;;;25.23;13.93;;;10.10;99.90;;;;;;5005756;28;20139;-61
2023/01/06 00:07:29;;;;;;;24.83;13.73;;;9.80;99.90;;;;;;5003818;28;20528;-61
2023/01/06 00:09:55;;;;;;;20.55;11.00;;;10.10;99.90;;;;;;5004034;28;20136;-61
2023/01/06 00:12:20;;;;;;;16.98;9.25;;;9.60;99.90;;;;;;5004283;28;20128;-62
2023/01/06 00:14:46;;;;;;;18.23;10.35;;;10.10;99.90;;;;;;5005227;28;20050;-60
2023/01/06 00:17:13;;;;;;;27.20;13.88;;;9.50;99.90;;;;;;5005476;28;20053;-61
2023/01/06 00:19:39;;;;;;;16.60;10.05;;;9.60;99.90;;;;;;5004607;28;20339;-60
2023/01/06 00:22:05;;;;;;;21.92;12.82;;;9.90;99.90;;;;;;4976352;28;20133;-61
2023/01/06 00:24:33;;;;;;;23.70;13.98;;;9.90;99.90;;;;;;4980798;28;20057;-61
2023/01/06 00:26:59;;;;;;;26.17;13.05;;;10.10;99.90;;;;;;4964443;28;20462;-61
2023/01/06 00:29:26;;;;;;;25.80;14.55;;;10.10;99.90;;;;;;4965429;28;20047;-60
2023/01/06 00:31:52;;;;;;;29.23;14.80;;;9.70;99.90;;;;;;4965487;28;20047;-62
2023/01/06 00:34:17;;;;;;;28.98;16.05;;;10.10;99.90;;;;;;4965456;28;20536;-61
2023/01/06 00:36:43;;;;;;;30.98;15.52;;;9.60;99.90;;;;;;4965372;28;20043;-60
2023/01/06 00:39:11;;;;;;;30.88;16.02;;;10.20;99.90;;;;;;4965387;28;20106;-62
2023/01/06 00:44:22;;;;;;;34.63;17.05;;;10.30;99.90;;;;;;4965470;28;20051;-62
2023/01/06 00:46:47;;;;;;;37.95;18.58;;;9.70;99.90;;;;;;4980068;28;20117;-60
2023/01/06 00:49:13;;;;;;;34.97;17.88;;;10.30;99.90;;;;;;4964706;28;20049;-61
2023/01/06 00:51:39;;;;;;;35.85;18.33;;;9.90;99.90;;;;;;4965514;28;20043;-61
2023/01/06 00:54:07;;;;;;;36.58;18.95;;;10.30;99.90;;;;;;4965545;28;20745;-61
2023/01/06 00:56:36;;;;;;;40.67;19.10;;;10.30;99.90;;;;;;4964856;28;20515;-62
2023/01/06 00:59:02;;;;;;;36.20;19.40;;;10.30;99.90;;;;;;4965490;28;20462;-61
2023/01/06 01:01:28;;;;;;;36.50;18.08;;;10.30;99.90;;;;;;4965790;28;20051;-61
2023/01/06 01:03:54;;;;;;;27.58;15.55;;;9.70;99.90;;;;;;4965797;28;20581;-61
2023/01/06 01:06:20;;;;;;;39.83;20.27;;;10.30;99.90;;;;;;4965481;28;20665;-61
2023/01/06 01:08:45;;;;;;;42.20;19.13;;;10.10;99.90;;;;;;4965905;28;20105;-61
2023/01/06 01:12:08;;;;;;;40.58;18.98;;;9.90;99.90;;;;;;4964872;28;20142;-61
2023/01/06 01:13:57;;;;;;;35.05;19.30;;;10.00;99.90;;;;;;4965384;28;20082;-61
2023/01/06 01:16:23;;;;;;;29.40;17.45;;;9.70;99.90;;;;;;4964691;28;20085;-61
2023/01/06 01:18:48;;;;;;;28.63;14.35;;;10.40;99.90;;;;;;4966053;28;20089;-61
2023/01/06 01:21:14;;;;;;;28.77;14.68;;;9.90;99.90;;;;;;4971434;28;20513;-61
2023/01/06 01:23:40;;;;;;;32.88;17.98;;;10.20;99.90;;;;;;4969883;28;20039;-61
2023/01/06 01:26:05;;;;;;;31.63;18.73;;;9.80;99.90;;;;;;4964658;28;20565;-62
2023/01/06 01:28:32;;;;;;;30.52;18.35;;;10.40;99.90;;;;;;4964637;28;20047;-60
2023/01/06 01:30:59;;;;;;;37.05;18.10;;;10.40;99.90;;;;;;4964054;28;20046;-61
2023/01/06 01:33:25;;;;;;;32.75;18.65;;;10.00;99.90;;;;;;4965706;28;20074;-61
2023/01/06 01:35:50;;;;;;;25.55;16.70;;;10.00;99.90;;;;;;4965740;28;20093;-61
2023/01/06 01:38:16;;;;;;;25.20;14.00;;;9.90;99.90;;;;;;4964936;28;20043;-61
2023/01/06 01:40:49;;;;;;;26.15;15.60;;;10.10;99.90;;;;;;4979288;28;20047;-60
2023/01/06 01:43:15;;;;;;;28.15;16.40;;;10.10;99.90;;;;;;4965116;28;20058;-61
2023/01/06 01:45:44;;;;;;;22.25;10.85;;;9.90;99.90;;;;;;4979147;28;20039;-61
2023/01/06 01:48:34;;;;;;;17.77;11.38;;;10.40;99.90;;;;;;4965201;28;20086;-61
2023/01/06 01:51:03;;;;;;;19.45;11.32;;;9.90;99.90;;;;;;4965217;28;20050;-61
2023/01/06 01:53:37;;;;;;;20.63;12.30;;;10.00;99.90;;;;;;4965726;28;20078;-62
2023/01/06 01:56:07;;;;;;;18.75;11.93;;;9.90;99.90;;;;;;4964923;28;20035;-61
2023/01/06 01:58:39;;;;;;;17.27;10.98;;;9.90;99.90;;;;;;4965165;28;20109;-60
2023/01/06 02:01:07;;;;;;;20.77;10.60;;;10.30;99.90;;;;;;4965425;28;20502;-61
2023/01/06 02:03:33;;;;;;;14.32;7.40;;;10.00;99.90;;;;;;4965268;28;20039;-61
2023/01/06 02:06:02;;;;;;;12.50;7.47;;;10.30;99.90;;;;;;4965385;28;20049;-62
2023/01/06 02:08:38;;;;;;;16.95;9.70;;;10.10;99.90;;;;;;4969228;28;20057;-62
2023/01/06 02:11:05;;;;;;;19.05;9.07;;;9.90;99.90;;;;;;4967630;28;20065;-61
2023/01/06 02:13:33;;;;;;;13.38;9.02;;;10.40;99.90;;;;;;4967691;28;20375;-60
2023/01/06 02:16:10;;;;;;;16.20;9.60;;;10.30;99.90;;;;;;4968941;28;20406;-62
2023/01/06 02:19:01;;;;;;;14.38;9.50;;;10.30;99.90;;;;;;5005325;28;20038;-61
2023/01/06 02:21:52;;;;;;;12.00;8.15;;;10.20;99.90;;;;;;4959474;28;20607;-61
2023/01/06 02:24:18;;;;;;;9.27;5.47;;;10.00;99.90;;;;;;4949568;28;20061;-61
2023/01/06 02:26:49;;;;;;;16.80;9.05;;;10.00;99.90;;;;;;4966137;28;20674;-61
2023/01/06 02:29:33;;;;;;;14.05;8.73;;;10.00;99.90;;;;;;4967955;28;20046;-61
2023/01/06 02:32:21;;;;;;;12.27;7.30;;;10.00;99.90;;;;;;4968646;28;20391;-62
2023/01/06 02:34:52;;;;;;;15.43;8.80;;;10.00;99.90;;;;;;4968687;28;20726;-61
2023/01/06 02:37:23;;;;;;;12.77;8.02;;;10.40;99.90;;;;;;4968336;28;20112;-60
2023/01/06 02:40:13;;;;;;;12.77;8.60;;;10.40;99.90;;;;;;4967724;28;20054;-60
2023/01/06 02:42:53;;;;;;;12.02;7.78;;;10.20;99.90;;;;;;4967535;28;20053;-61
2023/01/06 02:45:25;;;;;;;11.75;8.00;;;10.40;99.90;;;;;;4966662;28;20055;-61
2023/01/06 02:48:19;;;;;;;10.02;6.95;;;10.10;99.90;;;;;;4968318;28;20430;-61
2023/01/06 02:51:12;;;;;;;13.73;6.97;;;10.10;99.90;;;;;;4968431;28;20050;-61
2023/01/06 02:54:09;;;;;;;13.43;8.45;;;10.40;99.90;;;;;;4967483;28;20124;-61
2023/01/06 02:56:41;;;;;;;10.52;6.93;;;9.90;99.90;;;;;;4967337;28;20058;-61
2023/01/06 02:59:38;;;;;;;13.27;7.03;;;9.90;99.90;;;;;;4967989;28;20047;-61
2023/01/06 03:02:05;;;;;;;14.18;7.43;;;10.30;99.90;;;;;;4959224;28;20059;-61
2023/01/06 03:04:42;;;;;;;11.55;6.07;;;10.30;99.90;;;;;;4966457;28;20058;-61
2023/01/06 03:07:09;;;;;;;13.13;6.90;;;10.30;99.90;;;;;;4967485;28;20058;-60
2023/01/06 03:09:37;;;;;;;10.55;5.75;;;10.30;99.90;;;;;;4967029;28;20058;-61
2023/01/06 03:12:25;;;;;;;8.15;5.40;;;10.00;99.90;;;;;;4966465;28;20098;-61
2023/01/06 03:14:53;;;;;;;8.65;6.25;;;10.10;99.90;;;;;;4967022;28;20066;-61
2023/01/06 03:17:19;;;;;;;11.02;6.70;;;10.20;99.90;;;;;;4966934;28;20053;-60
2023/01/06 03:19:45;;;;;;;11.80;7.55;;;10.30;99.90;;;;;;4966520;28;20106;-61
2023/01/06 03:22:11;;;;;;;13.25;7.65;;;10.00;99.90;;;;;;4977961;28;20051;-60
2023/01/06 03:24:38;;;;;;;13.55;6.78;;;10.30;99.90;;;;;;4966485;28;20532;-61
2023/01/06 03:27:04;;;;;;;9.52;6.28;;;10.30;99.90;;;;;;4964977;28;20045;-61
2023/01/06 03:29:30;;;;;;;12.75;6.95;;;10.20;99.90;;;;;;4967666;28;20038;-60
2023/01/06 03:32:12;;;;;;;9.77;6.07;;;10.10;99.90;;;;;;4966826;28;20050;-61
2023/01/06 03:34:46;;;;;;;10.68;6.78;;;10.20;99.90;;;;;;4967655;28;20118;-61
2023/01/06 03:37:37;;;;;;;9.80;6.70;;;10.20;99.90;;;;;;4967086;28;20038;-61
2023/01/06 03:40:31;;;;;;;14.05;7.18;;;10.20;99.90;;;;;;4967842;28;20509;-60
2023/01/06 03:43:24;;;;;;;13.65;6.80;;;10.20;99.90;;;;;;4967295;28;20113;-60
2023/01/06 03:46:13;;;;;;;11.63;6.63;;;10.20;99.90;;;;;;4966968;28;20051;-61
2023/01/06 03:48:57;;;;;;;10.40;6.63;;;10.10;99.90;;;;;;4965775;28;20046;-61
2023/01/06 03:51:47;;;;;;;10.52;6.70;;;9.90;99.90;;;;;;4967260;28;20496;-60
2023/01/06 03:54:50;;;;;;;12.30;7.22;;;10.30;99.90;;;;;;4966220;28;20061;-61
2023/01/06 03:57:39;;;;;;;8.20;5.78;;;10.00;99.90;;;;;;4964053;28;20169;-60
2023/01/06 04:00:21;;;;;;;11.65;5.60;;;10.00;99.90;;;;;;4966801;28;20046;-61
2023/01/06 04:02:47;;;;;;;9.10;5.38;;;10.10;99.90;;;;;;4966457;28;20712;-61
2023/01/06 04:05:19;;;;;;;7.10;4.70;;;10.30;99.90;;;;;;4966865;28;20107;-60
2023/01/06 04:07:45;;;;;;;8.73;4.43;;;10.30;99.90;;;;;;4967031;28;20089;-61
2023/01/06 04:10:13;;;;;;;4.93;3.33;;;10.00;99.90;;;;;;4965627;28;20047;-61
2023/01/06 04:12:39;;;;;;;7.60;4.55;;;10.20;99.90;;;;;;4966494;28;20063;-61
2023/01/06 04:15:15;;;;;;;8.68;4.55;;;10.20;99.90;;;;;;4966496;28;20039;-61
2023/01/06 04:17:42;;;;;;;10.30;5.78;;;10.30;99.90;;;;;;4966374;28;20039;-61
2023/01/06 04:20:11;;;;;;;8.65;5.10;;;10.20;99.90;;;;;;4968395;28;20101;-61
2023/01/06 04:22:37;;;;;;;8.55;5.55;;;10.00;99.90;;;;;;4975473;28;20046;-60
2023/01/06 04:25:04;;;;;;;8.43;4.80;;;10.00;99.90;;;;;;4966978;28;20045;-60
2023/01/06 04:27:29;;;;;;;7.50;5.43;;;10.00;99.90;;;;;;4966921;28;20043;-60
2023/01/06 04:29:55;;;;;;;9.32;5.82;;;10.10;99.90;;;;;;4966718;28;20397;-60
2023/01/06 04:32:21;;;;;;;9.50;3.90;;;10.10;99.90;;;;;;4966123;28;20043;-61
2023/01/06 04:34:46;;;;;;;6.57;4.57;;;10.20;99.90;;;;;;4966363;28;20067;-61
2023/01/06 04:37:12;;;;;;;9.50;6.80;;;10.00;99.90;;;;;;4966409;28;20050;-60
2023/01/06 04:39:38;;;;;;;11.13;5.80;;;10.00;99.90;;;;;;4965909;28;20565;-61
2023/01/06 04:42:03;;;;;;;5.55;4.25;;;10.10;99.90;;;;;;4965067;28;20449;-60
2023/01/06 04:44:29;;;;;;;7.97;5.20;;;10.00;99.90;;;;;;4966207;28;20054;-61
2023/01/06 04:46:55;;;;;;;10.93;6.72;;;10.30;99.90;;;;;;4966238;28;20047;-60
2023/01/06 04:49:20;;;;;;;12.35;6.43;;;10.00;99.90;;;;;;4965694;28;20050;-61
2023/01/06 04:51:46;;;;;;;9.88;5.78;;;9.90;99.90;;;;;;4966120;28;20074;-60
2023/01/06 04:54:12;;;;;;;10.27;7.80;;;10.00;99.90;;;;;;4966313;28;20089;-61
2023/01/06 04:56:37;;;;;;;10.77;5.55;;;10.20;99.90;;;;;;4965371;28;20054;-61
2023/01/06 04:59:03;;;;;;;9.15;6.53;;;10.20;99.90;;;;;;4964167;28;20047;-61
2023/01/06 05:01:28;;;;;;;9.57;4.85;;;10.20;99.90;;;;;;4965832;28;20051;-60
2023/01/06 05:03:54;;;;;;;10.90;7.68;;;10.20;99.90;;;;;;4965927;28;20051;-61
2023/01/06 05:06:20;;;;;;;10.27;8.20;;;9.90;99.90;;;;;;4965141;28;20438;-61
2023/01/06 05:08:46;;;;;;;10.25;8.07;;;10.20;99.90;;;;;;4964487;28;20065;-62
2023/01/06 05:11:20;;;;;;;9.07;6.80;;;9.90;99.90;;;;;;4963295;28;20159;-61
2023/01/06 05:13:46;;;;;;;10.68;8.45;;;10.00;99.90;;;;;;4963665;28;20090;-61
2023/01/06 05:16:18;;;;;;;11.00;7.25;;;9.90;99.90;;;;;;4965605;28;20047;-61
2023/01/06 05:18:44;;;;;;;9.10;6.75;;;10.00;99.90;;;;;;4965728;28;20382;-61
2023/01/06 05:21:10;;;;;;;9.43;7.32;;;10.10;99.90;;;;;;4970753;28;20049;-61
2023/01/06 05:23:36;;;;;;;8.80;6.90;;;10.00;99.90;;;;;;4970886;28;20053;-61
2023/01/06 05:26:03;;;;;;;9.35;7.03;;;10.10;99.90;;;;;;4964595;28;20465;-61
2023/01/06 05:28:29;;;;;;;9.60;8.60;;;10.00;99.90;;;;;;4965285;28;20552;-60
2023/01/06 05:31:00;;;;;;;11.38;7.20;;;9.80;99.90;;;;;;4964859;28;20043;-60
2023/01/06 05:33:25;;;;;;;6.97;5.45;;;10.00;99.90;;;;;;4965262;28;20094;-61
2023/01/06 05:36:02;;;;;;;11.70;8.20;;;9.80;99.90;;;;;;4965441;28;20065;-61
2023/01/06 05:38:27;;;;;;;13.40;8.50;;;9.90;99.90;;;;;;4964986;28;20078;-61
2023/01/06 05:40:53;;;;;;;11.68;8.48;;;10.10;99.90;;;;;;4964066;28;20517;-60
2023/01/06 05:43:20;;;;;;;12.13;7.80;;;10.00;99.90;;;;;;4965573;28;20043;-61
2023/01/06 05:45:45;;;;;;;10.63;8.02;;;9.90;99.90;;;;;;4965132;28;20062;-61
2023/01/06 05:48:11;;;;;;;9.82;5.90;;;9.80;99.90;;;;;;4965761;28;20458;-60
2023/01/06 05:50:37;;;;;;;10.80;8.93;;;10.10;99.90;;;;;;4965290;28;20039;-61
2023/01/06 05:53:03;;;;;;;11.18;7.70;;;9.80;99.90;;;;;;4965392;28;20086;-62
2023/01/06 05:55:28;;;;;;;7.22;5.82;;;10.00;99.90;;;;;;4964990;28;20133;-61
2023/01/06 05:57:54;;;;;;;9.73;7.43;;;10.00;99.90;;;;;;4965179;28;20042;-60
2023/01/06 06:00:19;;;;;;;9.30;4.80;;;10.20;99.90;;;;;;4965140;28;20089;-60
2023/01/06 06:02:45;;;;;;;7.97;5.63;;;10.20;99.90;;;;;;4964465;28;20039;-61
2023/01/06 06:05:11;;;;;;;6.63;3.85;;;10.10;99.90;;;;;;4965385;28;20458;-62
2023/01/06 06:07:37;;;;;;;4.60;3.38;;;10.10;99.90;;;;;;4964993;28;20042;-61
2023/01/06 06:10:04;;;;;;;6.22;4.20;;;10.10;99.90;;;;;;4964193;28;20041;-61
2023/01/06 06:12:29;;;;;;;6.78;4.35;;;10.20;99.90;;;;;;4964929;28;20457;-60
2023/01/06 06:14:55;;;;;;;7.32;4.32;;;10.30;99.90;;;;;;4965229;28;20118;-60
2023/01/06 06:17:21;;;;;;;7.82;4.72;;;10.30;99.90;;;;;;4965220;28;20037;-61
2023/01/06 06:19:47;;;;;;;5.68;3.08;;;10.10;99.90;;;;;;4964453;28;20043;-61
2023/01/06 06:22:13;;;;;;;6.32;4.95;;;10.00;99.90;;;;;;4975383;28;20038;-59
2023/01/06 06:24:39;;;;;;;4.18;3.20;;;10.10;99.90;;;;;;4965104;28;20136;-61
2023/01/06 06:27:05;;;;;;;6.32;3.97;;;9.90;99.90;;;;;;4963350;28;20498;-60
2023/01/06 06:29:30;;;;;;;6.47;3.65;;;10.00;99.90;;;;;;4964275;28;20086;-60
2023/01/06 06:31:56;;;;;;;7.20;5.72;;;9.70;99.90;;;;;;4964199;28;20065;-60
2023/01/06 06:34:21;;;;;;;7.45;5.32;;;10.10;99.90;;;;;;4964207;28;20379;-61
2023/01/06 06:36:47;;;;;;;6.20;5.47;;;9.80;99.90;;;;;;4964204;28;20474;-61
2023/01/06 06:39:13;;;;;;;5.80;4.20;;;10.10;99.90;;;;;;4965047;28;20400;-61
2023/01/06 06:41:38;;;;;;;8.63;6.50;;;9.70;99.90;;;;;;4963237;28;20506;-60
2023/01/06 06:44:04;;;;;;;10.10;7.25;;;9.90;99.90;;;;;;4964030;28;20054;-61
2023/01/06 06:46:30;;;;;;;10.13;6.60;;;9.70;99.90;;;;;;4964564;28;20053;-61
2023/01/06 06:48:55;;;;;;;9.18;7.13;;;9.90;99.90;;;;;;4964394;28;20051;-60
2023/01/06 06:51:21;;;;;;;7.20;5.13;;;9.80;99.90;;;;;;4982426;28;20101;-60
2023/01/06 06:53:47;;;;;;;7.15;5.03;;;9.70;99.90;;;;;;4983122;28;20050;-61
2023/01/06 06:56:14;;;;;;;8.40;6.15;;;9.80;99.90;;;;;;4986349;28;20390;-61
2023/01/06 06:58:40;;;;;;;10.48;7.72;;;9.50;99.90;;;;;;4986782;28;20046;-60
2023/01/06 07:01:07;;;;;;;9.88;7.00;;;10.00;99.90;;;;;;4985064;28;20109;-61
2023/01/06 07:03:33;;;;;;;8.15;6.22;;;10.00;99.90;;;;;;4986680;28;20034;-61
2023/01/06 07:05:59;;;;;;;9.70;7.43;;;9.50;99.90;;;;;;4986070;28;20485;-61
2023/01/06 07:08:26;;;;;;;8.80;6.93;;;9.40;99.90;;;;;;4985303;28;20046;-60
2023/01/06 07:10:52;;;;;;;10.50;6.03;;;9.90;99.90;;;;;;4983947;28;20058;-60
2023/01/06 07:13:18;;;;;;;11.35;7.60;;;9.40;99.90;;;;;;4986231;28;20054;-61
2023/01/06 07:15:43;;;;;;;10.02;6.55;;;9.50;99.90;;;;;;4986218;28;20126;-61
2023/01/06 07:18:09;;;;;;;10.75;7.80;;;9.30;99.90;;;;;;4986603;28;20109;-61
2023/01/06 07:20:36;;;;;;;10.45;6.65;;;9.50;99.90;;;;;;4982042;28;20042;-61
2023/01/06 07:23:02;;;;;;;8.07;6.45;;;9.80;99.90;;;;;;4976446;28;20441;-61
2023/01/06 07:25:29;;;;;;;9.30;7.72;;;9.50;99.90;;;;;;4966616;28;20087;-61
2023/01/06 07:27:56;;;;;;;8.35;5.00;;;9.60;99.90;;;;;;4967111;28;20053;-60
2023/01/06 07:30:22;;;;;;;8.88;5.60;;;9.30;99.90;;;;;;4967621;28;20070;-61
2023/01/06 07:32:48;;;;;;;8.75;7.90;;;9.50;99.90;;;;;;4967183;28;20043;-60
2023/01/06 07:35:14;;;;;;;8.98;5.75;;;9.80;99.90;;;;;;4966963;28;20513;-61
2023/01/06 07:37:39;;;;;;;10.80;8.63;;;9.80;99.90;;;;;;4967359;28;20078;-61
2023/01/06 07:40:05;;;;;;;8.90;7.20;;;9.70;99.90;;;;;;4966902;28;20062;-61
2023/01/06 07:42:31;;;;;;;8.35;5.60;;;9.50;99.90;;;;;;4966619;28;20051;-61
2023/01/06 07:44:57;;;;;;;8.80;6.93;;;9.20;99.90;;;;;;4965899;28;20173;-61
2023/01/06 07:47:22;;;;;;;8.48;7.57;;;9.20;99.90;;;;;;4967130;28;20096;-61
2023/01/06 07:49:48;;;;;;;9.02;6.22;;;9.10;99.90;;;;;;4981558;28;20148;-62
2023/01/06 07:52:13;;;;;;;9.07;7.72;;;9.10;99.90;;;;;;4965446;28;20509;-61
2023/01/06 07:54:39;;;;;;;8.38;6.60;;;9.70;99.90;;;;;;4966202;28;20070;-61
2023/01/06 07:57:05;;;;;;;7.45;6.05;;;9.70;99.90;;;;;;4966871;28;20650;-61
2023/01/06 07:59:30;;;;;;;7.82;6.90;;;9.20;99.90;;;;;;4966623;28;20035;-60
2023/01/06 08:01:56;;;;;;;10.07;7.32;;;9.60;99.90;;;;;;4967062;28;20057;-60
2023/01/06 08:04:22;;;;;;;7.35;6.55;;;9.70;99.90;;;;;;4965150;28;20772;-61
2023/01/06 08:06:47;;;;;;;7.43;5.38;;;9.60;99.90;;;;;;4967331;28;20947;-61
2023/01/06 08:09:13;;;;;;;6.00;4.53;;;9.80;99.90;;;;;;4981652;28;20046;-60
2023/01/06 08:11:38;;;;;;;6.95;4.68;;;9.40;99.90;;;;;;4965449;28;20201;-60
2023/01/06 08:14:04;;;;;;;5.97;4.72;;;9.50;99.90;;;;;;4966869;28;20046;-61
2023/01/06 08:16:30;;;;;;;5.70;4.22;;;9.40;99.90;;;;;;4965195;28;20110;-61
2023/01/06 08:18:56;;;;;;;5.43;3.58;;;9.40;99.90;;;;;;4966047;28;20054;-61
2023/01/06 08:21:22;;;;;;;4.38;3.17;;;9.90;99.90;;;;;;4973425;28;20129;-61
2023/01/06 08:23:47;;;;;;;4.45;2.70;;;9.30;99.90;;;;;;4969054;28;20034;-61
2023/01/06 08:26:16;;;;;;;4.55;2.20;;;9.50;99.90;;;;;;4965363;28;20070;-60
2023/01/06 08:28:43;;;;;;;4.60;2.20;;;9.40;99.90;;;;;;4966528;28;20047;-60
2023/01/06 08:31:11;;;;;;;3.40;1.65;;;9.50;99.90;;;;;;4966276;28;20087;-60
2023/01/06 08:33:37;;;;;;;5.50;1.33;;;9.30;99.90;;;;;;4966185;28;20053;-61
2023/01/06 08:36:06;;;;;;;3.05;0.90;;;9.20;99.90;;;;;;4966497;28;20046;-61
2023/01/06 08:38:33;;;;;;;2.90;0.80;;;9.10;99.90;;;;;;4973519;28;20046;-61
2023/01/06 08:40:59;;;;;;;2.13;0.80;;;9.00;99.90;;;;;;4982448;28;20043;-61
2023/01/06 08:43:26;;;;;;;4.85;1.05;;;9.20;99.90;;;;;;4985381;28;20129;-61
2023/01/06 08:45:52;;;;;;;3.47;0.80;;;9.10;99.90;;;;;;4985128;28;20082;-61
2023/01/06 08:48:18;;;;;;;3.53;1.02;;;9.10;99.90;;;;;;4983902;28;20505;-61
2023/01/06 08:50:44;;;;;;;2.35;0.70;;;9.10;99.90;;;;;;4984296;28;20080;-61
2023/01/06 08:53:11;;;;;;;3.65;0.80;;;9.00;99.90;;;;;;4984761;28;20413;-61
2023/01/06 08:55:41;;;;;;;3.60;1.00;;;8.80;99.90;;;;;;4984507;28;20050;-62
2023/01/06 08:58:08;;;;;;;2.75;0.70;;;8.80;99.90;;;;;;4984310;28;20113;-62
2023/01/06 09:00:35;;;;;;;3.75;0.93;;;8.70;99.90;;;;;;4985149;28;20663;-61
2023/01/06 09:03:01;;;;;;;6.05;0.88;;;9.00;99.90;;;;;;4985477;28;20113;-61
2023/01/06 09:05:27;;;;;;;3.55;1.15;;;8.80;99.90;;;;;;4984808;28;20117;-61
2023/01/06 09:07:53;;;;;;;2.92;0.80;;;8.90;99.90;;;;;;4985387;28;20129;-62
2023/01/06 09:10:19;;;;;;;5.00;0.80;;;9.10;99.90;;;;;;4984822;28;20038;-61
2023/01/06 09:12:45;;;;;;;6.28;1.42;;;9.20;99.90;;;;;;4983395;28;20105;-61
2023/01/06 09:15:11;;;;;;;3.00;0.68;;;9.20;99.90;;;;;;4984323;28;21236;-61
2023/01/06 09:17:37;;;;;;;2.90;0.85;;;9.20;99.90;;;;;;4984876;28;20034;-61
2023/01/06 09:20:03;;;;;;;5.97;0.70;;;9.20;99.90;;;;;;4982894;28;20067;-61
2023/01/06 09:22:29;;;;;;;3.75;0.70;;;9.20;99.90;;;;;;4974744;28;20475;-61
2023/01/06 09:24:55;;;;;;;3.95;0.93;;;9.20;99.90;;;;;;4964978;28;20056;-62
2023/01/06 09:27:21;;;;;;;4.50;0.80;;;9.30;99.90;;;;;;4965406;28;20645;-61
2023/01/06 09:29:46;;;;;;;2.92;0.80;;;9.30;99.90;;;;;;4965117;28;20039;-61
2023/01/06 09:32:12;;;;;;;3.00;0.65;;;9.30;99.90;;;;;;4964960;28;20506;-61
2023/01/06 09:34:38;;;;;;;4.10;0.90;;;9.40;99.90;;;;;;4963759;28;20042;-61
2023/01/06 09:37:03;;;;;;;5.40;0.95;;;9.40;99.90;;;;;;4964840;28;20065;-61
2023/01/06 09:39:29;;;;;;;4.22;0.77;;;9.40;99.90;;;;;;4964241;28;20058;-61
2023/01/06 09:42:23;;;;;;;5.18;0.90;;;9.40;99.90;;;;;;4964632;28;20055;-62
2023/01/06 09:45:01;;;;;;;5.50;0.88;;;9.30;99.90;;;;;;4965491;28;20426;-61
2023/01/06 09:47:32;;;;;;;5.85;1.10;;;10.00;99.90;;;;;;4965078;28;20057;-61
2023/01/06 09:49:58;;;;;;;6.60;0.88;;;10.30;99.90;;;;;;4965887;28;20137;-61
2023/01/06 09:52:30;;;;;;;3.90;0.80;;;10.70;99.90;;;;;;4965035;28;20126;-62
2023/01/06 09:55:04;;;;;;;2.60;0.63;;;11.30;99.90;;;;;;4964993;28;20418;-61
2023/01/06 09:57:37;;;;;;;2.92;0.90;;;11.50;99.90;;;;;;4964688;28;20445;-61
2023/01/06 10:00:14;;;;;;;2.87;0.70;;;11.20;99.90;;;;;;4965495;28;20046;-61
2023/01/06 10:02:41;;;;;;;4.47;0.90;;;11.00;99.90;;;;;;4964970;28;20434;-62
2023/01/06 10:05:26;;;;;;;5.03;1.30;;;11.20;99.90;;;;;;4964477;28;20078;-61
2023/01/06 10:08:18;;;;;;;5.68;1.20;;;11.10;99.90;;;;;;4965458;28;20421;-61
2023/01/06 10:11:23;;;;;;;6.90;1.30;;;11.20;99.90;;;;;;4964395;28;20055;-61
2023/01/06 10:13:55;;;;;;;8.95;1.30;;;11.00;99.90;;;;;;4965183;28;20043;-61
2023/01/06 10:16:35;;;;;;;4.18;0.82;;;10.90;99.90;;;;;;4965342;28;20486;-62
2023/01/06 10:19:24;;;;;;;6.60;0.95;;;10.90;99.90;;;;;;4963229;28;20749;-62
2023/01/06 10:22:09;;;;;;;5.75;0.98;;;11.30;99.90;;;;;;4972573;28;20054;-62
2023/01/06 10:25:10;;;;;;;8.95;1.23;;;10.80;99.90;;;;;;4964231;28;20047;-62
2023/01/06 10:27:40;;;;;;;10.90;1.25;;;10.90;99.90;;;;;;4928095;28;20518;-62
2023/01/06 10:30:30;;;;;;;6.50;1.20;;;10.50;99.90;;;;;;4964623;28;20077;-62
2023/01/06 10:32:56;;;;;;;11.88;1.30;;;10.00;99.90;;;;;;4968745;28;20405;-63
2023/01/06 10:35:24;;;;;;;6.68;1.30;;;9.90;99.90;;;;;;4967891;28;20740;-61
2023/01/06 10:37:52;;;;;;;12.77;1.42;;;10.00;99.90;;;;;;4968545;28;20053;-61
2023/01/06 10:40:21;;;;;;;9.93;1.33;;;10.20;99.90;;;;;;4967722;28;20181;-61
2023/01/06 10:42:56;;;;;;;5.40;1.33;;;10.60;99.90;;;;;;4968501;28;20053;-61
2023/01/06 10:45:52;;;;;;;4.25;1.13;;;11.10;99.90;;;;;;4968147;28;20038;-61
2023/01/06 10:48:28;;;;;;;2.70;0.60;;;11.50;99.90;;;;;;4963464;28;20477;-61
2023/01/06 10:50:53;;;;;;;8.07;1.38;;;11.30;99.90;;;;;;4968385;28;20536;-60
2023/01/06 10:53:19;;;;;;;8.13;1.52;;;11.20;99.90;;;;;;4968731;28;20074;-60
2023/01/06 10:56:00;;;;;;;8.00;1.70;;;11.50;99.90;;;;;;4967460;28;20054;-60
2023/01/06 10:58:51;;;;;;;7.13;1.60;;;11.70;99.90;;;;;;4968222;28;20066;-60
2023/01/06 11:01:25;;;;;;;6.88;1.13;;;11.60;99.90;;;;;;4967129;28;20051;-61
2023/01/06 11:04:07;;;;;;;9.57;1.15;;;11.80;99.90;;;;;;4968034;28;20090;-61
2023/01/06 11:06:33;;;;;;;7.97;1.42;;;11.10;99.90;;;;;;4967752;28;20038;-61
2023/01/06 11:09:06;;;;;;;8.00;1.15;;;11.10;99.90;;;;;;4973844;28;20070;-63
2023/01/06 11:11:32;;;;;;;7.45;1.63;;;11.10;99.90;;;;;;4987016;28;20094;-61
2023/01/06 11:14:02;;;;;;;6.38;1.20;;;10.90;99.90;;;;;;4987507;28;20328;-60
2023/01/06 11:16:34;;;;;;;6.65;1.50;;;10.50;99.90;;;;;;4987883;28;20078;-61
2023/01/06 11:19:03;;;;;;;7.70;1.52;;;10.20;99.90;;;;;;4987183;28;20182;-61
2023/01/06 11:21:42;;;;;;;8.45;1.40;;;10.10;99.90;;;;;;4979294;28;20616;-61
2023/01/06 11:24:19;;;;;;;6.07;1.08;;;10.10;99.90;;;;;;4967432;28;20128;-60
2023/01/06 11:26:52;;;;;;;6.32;1.38;;;10.10;99.90;;;;;;4967955;28;20053;-61
2023/01/06 11:29:28;;;;;;;7.22;1.42;;;10.40;99.90;;;;;;4967583;28;20051;-60
2023/01/06 11:31:55;;;;;;;9.30;1.58;;;10.60;99.90;;;;;;5002675;28;20042;-64
2023/01/06 11:34:27;;;;;;;5.30;0.85;;;10.60;99.90;;;;;;5005824;28;20072;-63
2023/01/06 11:36:53;;;;;;;4.47;1.02;;;10.50;99.90;;;;;;5006392;28;20180;-64
2023/01/06 11:39:33;;;;;;;7.72;1.55;;;10.30;99.90;;;;;;4990835;28;20043;-63
2023/01/06 11:42:09;;;;;;;8.98;1.65;;;10.50;99.90;;;;;;4985170;28;20182;-64
2023/01/06 11:44:38;;;;;;;7.70;1.45;;;10.30;99.90;;;;;;4986879;28;20056;-64
2023/01/06 11:47:14;;;;;;;7.38;1.52;;;10.40;99.90;;;;;;4985945;28;20053;-63
2023/01/06 11:49:47;;;;;;;6.88;1.20;;;10.30;99.90;;;;;;4986676;28;20129;-63
2023/01/06 11:52:32;;;;;;;9.75;1.73;;;10.60;99.90;;;;;;4986414;28;20026;-64
2023/01/06 11:55:20;;;;;;;6.20;1.25;;;10.50;99.90;;;;;;4983300;28;20054;-64
2023/01/06 11:58:04;;;;;;;8.77;1.52;;;10.70;99.90;;;;;;4984529;28;20050;-63
2023/01/06 12:00:52;;;;;;;8.80;1.30;;;10.50;99.90;;;;;;4985096;28;20046;-64
2023/01/06 12:03:31;;;;;;;8.75;1.50;;;10.20;99.90;;;;;;4986434;28;20046;-63
2023/01/06 12:06:31;;;;;;;7.90;1.63;;;10.40;99.90;;;;;;4986474;28;20093;-62
2023/01/06 12:09:11;;;;;;;10.70;2.05;;;10.40;99.90;;;;;;4984743;28;20056;-63
2023/01/06 12:11:47;;;;;;;7.22;1.45;;;10.50;99.90;;;;;;4984181;28;20054;-59
2023/01/06 12:14:21;;;;;;;10.55;1.80;;;10.60;99.90;;;;;;4985454;28;20413;-63
2023/01/06 12:17:10;;;;;;;8.68;1.70;;;10.80;99.90;;;;;;4983492;28;20482;-60
2023/01/06 12:19:55;;;;;;;7.65;1.40;;;10.70;99.90;;;;;;4985049;28;20134;-63
2023/01/06 12:22:41;;;;;;;12.60;1.98;;;10.60;99.90;;;;;;4976936;28;20050;-63
2023/01/06 12:25:23;;;;;;;10.07;1.80;;;10.40;99.90;;;;;;4965904;28;20113;-63
2023/01/06 12:27:55;;;;;;;7.22;1.30;;;10.40;99.90;;;;;;4966206;28;20097;-63
2023/01/06 12:30:34;;;;;;;4.90;1.08;;;10.30;99.90;;;;;;4966128;28;20054;-63
2023/01/06 12:33:24;;;;;;;6.40;1.67;;;10.20;99.90;;;;;;4966432;28;20085;-63
2023/01/06 12:35:54;;;;;;;9.02;1.55;;;10.20;99.90;;;;;;4966372;28;20401;-64
2023/01/06 12:38:43;;;;;;;11.98;1.92;;;10.10;99.90;;;;;;4993379;28;20416;-63
2023/01/06 12:41:22;;;;;;;5.43;1.30;;;10.00;99.90;;;;;;5003571;28;20050;-64
2023/01/06 12:44:05;;;;;;;8.02;1.90;;;10.10;99.90;;;;;;5005036;28;20042;-63
2023/01/06 12:46:41;;;;;;;7.85;1.63;;;10.10;99.90;;;;;;5004799;28;20046;-63
2023/01/06 12:49:25;;;;;;;8.27;1.45;;;9.90;99.90;;;;;;5003883;28;20074;-63
2023/01/06 12:51:55;;;;;;;7.90;1.30;;;10.00;99.90;;;;;;5004527;28;20552;-64
2023/01/06 12:54:29;;;;;;;4.68;1.08;;;10.00;99.90;;;;;;5004398;28;20069;-63
2023/01/06 12:57:08;;;;;;;11.35;1.90;;;10.00;99.90;;;;;;5004335;28;20049;-63
2023/01/06 12:59:52;;;;;;;11.88;2.00;;;9.90;99.90;;;;;;5003378;28;20622;-64
2023/01/06 13:02:39;;;;;;;6.53;1.30;;;9.90;99.90;;;;;;5003464;28;20568;-64
2023/01/06 13:05:28;;;;;;;10.82;1.90;;;9.80;99.90;;;;;;5003581;28;20046;-64
2023/01/06 13:08:19;;;;;;;8.35;1.45;;;9.80;99.90;;;;;;5004088;28;20046;-63